Terminal Aerodrome Forecast
Issued by NWS Albany, NY

Home | Current Version | Previous Version | Text Only | Print | Product List | Glossary On
Versions: 1 2 3 4 5 6 7 8 9 10 11 12 13 14 15 16 17 18 19 20 21 22 23 24 25 26 27 28 29 30
000
FTUS41 KALY 301153
TAFGFL
TAF
KGFL 301153Z 3012/3112 35004KT P6SM SCT250
     FM301500 05007KT P6SM SCT250
     FM310400 05005KT P6SM VCSH OVC100
     FM310900 06004KT 2SM -SN BR SCT010 OVC025=

USA.gov is the U.S. government's official web portal to all federal, state and local government web resources and services.